Terminal Aerodrome Forecast
Issued by NWS

Home | Current Version | Previous Version | Text Only | Print | Product List | Glossary On
Versions: 1 2 3 4 5 6 7 8 9 10 11 12 13 14 15
000
FTUS45 KTFX 290500
TAFHVR
TAF
KHVR 290520Z 2906/3006 24010KT P6SM BKN050
     FM290700 24010KT P6SM SKC
     FM291400 24014KT P6SM BKN250
     FM292000 25018G25KT P6SM FEW080 BKN250
     FM300100 24010KT P6SM SKC=

USA.gov is the U.S. government's official web portal to all federal, state and local government web resources and services.